Time;durP1;ratioP1;P1;durP2;ratioP2;P2;SDS_P1;SDS_P2;PMS_P1;PMS_P2;Temp;Humidity;BMP_temperature;BMP_pressure;BME280_temperature;BME280_humidity;BME280_pressure;Samples;Min_cycle;Max_cycle;Signal;HPM_P1;HPM_P2
2023/09/29 00:02:22;;;;;;;19.90;4.28;;;;;;;14.98;100.00;101537.06;5071480;28;20090;-79
2023/09/29 00:04:47;;;;;;;25.55;3.60;;;;;;;14.98;100.00;101537.88;5071382;28;20419;-80
2023/09/29 00:07:13;;;;;;;11.00;3.10;;;;;;;14.99;100.00;101534.22;5070294;28;20039;-79
2023/09/29 00:09:38;;;;;;;16.98;3.38;;;;;;;14.99;100.00;101541.44;5071844;28;20072;-81
2023/09/29 00:12:04;;;;;;;15.93;3.28;;;;;;;15.00;100.00;101540.41;5069972;28;20449;-79
2023/09/29 00:14:30;;;;;;;11.32;2.97;;;;;;;15.02;100.00;101540.25;5071249;28;20476;-77
2023/09/29 00:16:55;;;;;;;17.95;3.75;;;;;;;15.02;100.00;101533.09;5071633;28;20353;-78
2023/09/29 00:19:21;;;;;;;21.02;3.83;;;;;;;15.03;100.00;101528.56;5070728;28;20475;-78
2023/09/29 00:21:46;;;;;;;13.57;2.70;;;;;;;15.01;100.00;101523.34;5071958;28;20549;-78
2023/09/29 00:24:11;;;;;;;15.85;3.35;;;;;;;15.03;100.00;101528.56;5072567;28;20037;-78
2023/09/29 00:26:37;;;;;;;16.90;3.65;;;;;;;15.03;100.00;101525.88;5072084;28;20035;-81
2023/09/29 00:29:02;;;;;;;14.77;3.17;;;;;;;15.02;100.00;101530.41;5072461;28;20554;-79
2023/09/29 00:31:28;;;;;;;18.10;3.63;;;;;;;15.02;100.00;101508.97;5072009;28;20043;-78
2023/09/29 00:33:53;;;;;;;19.55;3.70;;;;;;;15.05;100.00;101519.38;5069878;28;20062;-78
2023/09/29 00:36:19;;;;;;;23.35;4.32;;;;;;;15.04;100.00;101531.09;5071897;28;20122;-78
2023/09/29 00:38:44;;;;;;;14.60;3.47;;;;;;;15.04;100.00;101524.91;5071369;28;20087;-78
2023/09/29 00:41:10;;;;;;;12.65;3.25;;;;;;;15.02;100.00;101525.03;5071287;28;20024;-79
2023/09/29 00:43:36;;;;;;;18.02;3.20;;;;;;;15.03;100.00;101529.38;5071666;28;20025;-79
2023/09/29 00:46:03;;;;;;;13.50;3.83;;;;;;;15.04;100.00;101527.56;5071198;28;20089;-83
2023/09/29 00:48:32;;;;;;;12.20;3.17;;;;;;;15.04;100.00;101522.22;5070409;28;20028;-78
2023/09/29 00:50:59;;;;;;;15.88;3.63;;;;;;;15.05;100.00;101516.69;5070992;28;20413;-79
2023/09/29 00:53:25;;;;;;;14.95;3.60;;;;;;;15.06;100.00;101512.16;5073576;28;20063;-78
2023/09/29 00:55:52;;;;;;;20.85;3.78;;;;;;;15.01;100.00;101509.94;5074825;28;20108;-79
2023/09/29 00:58:18;;;;;;;15.98;4.07;;;;;;;14.99;100.00;101506.59;5074320;28;20035;-78
2023/09/29 01:00:45;;;;;;;18.13;3.55;;;;;;;14.97;100.00;101503.19;5074974;28;20453;-79
2023/09/29 01:03:15;;;;;;;11.27;3.22;;;;;;;14.94;100.00;101504.38;5074528;28;20465;-80
2023/09/29 01:05:48;;;;;;;19.58;3.70;;;;;;;14.92;100.00;101500.97;5073239;28;20510;-79
2023/09/29 01:08:20;;;;;;;12.32;2.70;;;;;;;14.87;100.00;101500.59;5074393;28;20043;-79
2023/09/29 01:10:45;;;;;;;17.30;3.20;;;;;;;14.86;100.00;101501.59;5074338;28;20357;-79
2023/09/29 01:13:12;;;;;;;15.82;4.32;;;;;;;14.86;100.00;101501.59;5074181;28;20032;-79
2023/09/29 01:15:39;;;;;;;15.50;3.60;;;;;;;14.86;100.00;101493.56;5073957;28;20033;-81
2023/09/29 01:18:06;;;;;;;18.85;3.15;;;;;;;14.88;100.00;101490.72;5074099;28;20056;-78
2023/09/29 01:20:32;;;;;;;13.80;3.38;;;;;;;14.87;100.00;101483.66;5074260;28;20544;-79
2023/09/29 01:23:05;;;;;;;19.48;3.60;;;;;;;14.85;100.00;101483.81;5074234;28;20044;-79
2023/09/29 01:25:32;;;;;;;15.77;4.03;;;;;;;14.85;100.00;101467.75;5074446;28;20119;-79
2023/09/29 01:27:58;;;;;;;14.73;3.10;;;;;;;14.87;100.00;101465.78;5074341;28;20051;-79
2023/09/29 01:30:25;;;;;;;17.10;3.55;;;;;;;14.88;100.00;101464.75;5074147;28;20024;-78
2023/09/29 01:32:53;;;;;;;16.00;3.42;;;;;;;14.88;100.00;101459.41;5074651;28;20157;-78
2023/09/29 01:35:21;;;;;;;12.63;3.15;;;;;;;14.91;100.00;101472.53;5074056;28;20040;-79
2023/09/29 01:37:48;;;;;;;15.82;4.03;;;;;;;14.93;100.00;101465.16;5074287;28;20074;-79
2023/09/29 01:40:14;;;;;;;18.40;3.67;;;;;;;14.95;100.00;101468.53;5074001;28;20060;-78
2023/09/29 01:42:44;;;;;;;14.75;3.92;;;;;;;15.00;100.00;101473.41;5073795;28;20412;-80
2023/09/29 01:45:14;;;;;;;9.77;2.85;;;;;;;15.03;100.00;101466.94;5074147;28;20032;-79
2023/09/29 01:47:41;;;;;;;15.10;3.22;;;;;;;15.04;100.00;101480.16;5073753;28;20082;-79
2023/09/29 01:50:08;;;;;;;18.77;3.72;;;;;;;15.07;100.00;101493.25;5073517;28;20045;-78
2023/09/29 01:52:34;;;;;;;19.58;4.03;;;;;;;15.08;100.00;101472.69;5073314;28;20067;-80
2023/09/29 01:55:02;;;;;;;23.83;3.90;;;;;;;14.92;100.00;101436.69;5074112;28;20110;-80
2023/09/29 01:57:27;;;;;;;13.45;3.72;;;;;;;14.71;100.00;101449.53;5074094;28;20028;-80
2023/09/29 01:59:54;;;;;;;23.33;3.67;;;;;;;14.53;100.00;101450.31;5073453;28;20055;-80
2023/09/29 02:02:19;;;;;;;14.38;3.72;;;;;;;14.42;100.00;101447.84;5074069;28;20032;-81
2023/09/29 02:04:47;;;;;;;12.88;3.10;;;;;;;14.35;100.00;101452.94;5073332;28;20029;-81
2023/09/29 02:07:12;;;;;;;13.80;4.07;;;;;;;14.31;100.00;101448.88;5073613;28;20041;-81
2023/09/29 02:09:38;;;;;;;18.25;4.07;;;;;;;14.32;100.00;101447.06;5073610;28;20037;-81
2023/09/29 02:12:03;;;;;;;17.70;3.55;;;;;;;14.31;100.00;101437.34;5072344;28;20068;-81
2023/09/29 02:14:29;;;;;;;14.30;3.60;;;;;;;14.35;100.00;101438.75;5073593;28;20506;-81
2023/09/29 02:16:55;;;;;;;16.05;4.00;;;;;;;14.37;100.00;101432.22;5072036;28;20035;-81
2023/09/29 02:19:21;;;;;;;23.17;4.80;;;;;;;14.38;100.00;101425.88;5073477;28;20116;-79
2023/09/29 02:21:46;;;;;;;16.67;4.15;;;;;;;14.41;100.00;101428.25;5073432;28;20134;-80
2023/09/29 02:24:12;;;;;;;22.35;4.55;;;;;;;14.42;100.00;101426.41;5073835;28;20445;-81
2023/09/29 02:26:38;;;;;;;17.23;3.88;;;;;;;14.45;100.00;101423.44;5073919;28;20094;-81
2023/09/29 02:29:04;;;;;;;18.00;4.07;;;;;;;14.49;100.00;101429.34;5073209;28;20109;-80
2023/09/29 02:31:30;;;;;;;14.32;4.15;;;;;;;14.52;100.00;101429.03;5073284;28;20037;-80
2023/09/29 02:33:55;;;;;;;17.35;4.07;;;;;;;14.55;100.00;101434.09;5073051;28;20131;-80
2023/09/29 02:36:20;;;;;;;18.48;4.15;;;;;;;14.58;100.00;101433.78;5073513;28;20433;-81
2023/09/29 02:38:47;;;;;;;14.70;3.80;;;;;;;14.60;100.00;101421.94;5072290;28;20128;-79
2023/09/29 02:41:12;;;;;;;21.50;3.78;;;;;;;14.63;100.00;101402.94;5072700;28;20472;-78
2023/09/29 02:43:38;;;;;;;15.23;3.70;;;;;;;14.68;100.00;101402.47;5072631;28;20156;-80
2023/09/29 02:46:03;;;;;;;13.52;3.50;;;;;;;14.72;100.00;101411.03;5072837;28;20082;-78
2023/09/29 02:48:29;;;;;;;22.50;4.30;;;;;;;14.74;100.00;101398.34;5072999;28;20449;-80
2023/09/29 02:50:55;;;;;;;18.58;4.18;;;;;;;14.75;100.00;101386.63;5072657;28;20055;-79
2023/09/29 02:53:21;;;;;;;18.27;4.25;;;;;;;14.77;100.00;101390.00;5072304;28;20394;-81
2023/09/29 02:55:46;;;;;;;16.75;4.40;;;;;;;14.81;100.00;101394.06;5071218;28;20032;-80
2023/09/29 02:58:13;;;;;;;17.20;3.95;;;;;;;14.81;100.00;101391.38;5072808;28;20041;-80
2023/09/29 03:00:41;;;;;;;12.23;3.38;;;;;;;14.85;100.00;101391.91;5072247;28;20469;-79
2023/09/29 03:03:09;;;;;;;16.25;3.80;;;;;;;14.85;100.00;101378.50;5072497;28;20032;-80
2023/09/29 03:05:34;;;;;;;19.35;3.97;;;;;;;14.85;100.00;101382.03;5072157;28;20062;-78
2023/09/29 03:08:00;;;;;;;17.33;4.05;;;;;;;14.83;100.00;101378.66;5070780;28;20105;-81
2023/09/29 03:10:28;;;;;;;15.50;3.88;;;;;;;14.82;100.00;101379.66;5070557;28;20077;-80
2023/09/29 03:12:56;;;;;;;16.20;3.90;;;;;;;14.80;100.00;101374.44;5072232;28;20033;-79
2023/09/29 03:15:22;;;;;;;15.98;3.60;;;;;;;14.78;100.00;101371.09;5072563;28;20041;-80
2023/09/29 03:17:48;;;;;;;11.55;3.42;;;;;;;14.76;100.00;101367.75;5071798;28;20039;-78
2023/09/29 03:20:14;;;;;;;10.90;3.60;;;;;;;14.76;100.00;101370.41;5070610;28;20044;-80
2023/09/29 03:22:41;;;;;;;19.98;4.32;;;;;;;14.75;100.00;101365.19;5071940;28;20206;-79
2023/09/29 03:25:09;;;;;;;22.05;3.85;;;;;;;14.75;100.00;101359.84;5072219;28;20417;-80
2023/09/29 03:27:35;;;;;;;14.35;3.33;;;;;;;14.76;100.00;101351.66;5072524;28;20036;-79
2023/09/29 03:30:01;;;;;;;20.75;4.18;;;;;;;14.77;100.00;101349.81;5072134;28;20127;-80
2023/09/29 03:32:30;;;;;;;13.23;3.15;;;;;;;14.78;100.00;101348.84;5072436;28;20029;-81
2023/09/29 03:34:55;;;;;;;12.43;3.85;;;;;;;14.81;100.00;101341.31;5070908;28;20033;-80
2023/09/29 03:37:21;;;;;;;12.27;3.20;;;;;;;14.84;100.00;101337.50;5072704;28;20404;-81
2023/09/29 03:39:49;;;;;;;12.10;3.65;;;;;;;14.86;100.00;101332.81;5071858;28;20176;-79
2023/09/29 03:42:16;;;;;;;16.50;3.38;;;;;;;14.88;100.00;101329.97;5071915;28;20024;-79
2023/09/29 03:44:43;;;;;;;13.02;3.08;;;;;;;14.89;100.00;101334.34;5071581;28;20136;-78
2023/09/29 03:47:11;;;;;;;19.83;3.85;;;;;;;14.90;100.00;101334.19;5071432;28;20487;-80
2023/09/29 03:49:38;;;;;;;13.05;3.50;;;;;;;14.92;100.00;101329.50;5072042;28;20049;-80
2023/09/29 03:52:06;;;;;;;17.80;3.80;;;;;;;14.93;100.00;101327.69;5071754;28;20063;-79
2023/09/29 03:54:33;;;;;;;15.50;3.92;;;;;;;14.94;100.00;101316.81;5070476;28;20029;-80
2023/09/29 03:56:58;;;;;;;11.77;3.53;;;;;;;14.93;100.00;101320.50;5071587;28;20044;-79
2023/09/29 03:59:24;;;;;;;13.73;4.10;;;;;;;14.94;100.00;101329.34;5071706;28;20509;-79
2023/09/29 04:01:50;;;;;;;12.65;3.92;;;;;;;14.93;100.00;101325.84;5070323;28;20079;-80
2023/09/29 04:04:16;;;;;;;16.30;3.85;;;;;;;14.95;100.00;101334.56;5072380;28;20036;-79
2023/09/29 04:06:41;;;;;;;17.23;4.05;;;;;;;14.97;100.00;101334.41;5071598;28;20388;-79
2023/09/29 04:09:07;;;;;;;14.15;3.80;;;;;;;14.98;100.00;101326.19;5071479;28;20056;-80
2023/09/29 04:11:32;;;;;;;9.50;3.10;;;;;;;15.03;100.00;101328.41;5071082;28;20540;-80
2023/09/29 04:13:57;;;;;;;12.95;3.75;;;;;;;15.07;100.00;101331.63;5069695;28;20043;-79
2023/09/29 04:16:23;;;;;;;13.32;3.60;;;;;;;15.08;100.00;101323.44;5071686;28;20110;-81
2023/09/29 04:18:48;;;;;;;11.15;3.58;;;;;;;15.12;100.00;101324.81;5069844;28;20358;-78
2023/09/29 04:21:15;;;;;;;17.02;3.95;;;;;;;15.13;100.00;101329.16;5071145;28;20035;-79
2023/09/29 04:23:41;;;;;;;16.50;3.97;;;;;;;15.15;100.00;101331.69;5071289;28;20028;-79
2023/09/29 04:26:18;;;;;;;16.02;3.40;;;;;;;15.15;100.00;101332.53;5071376;28;20473;-83
2023/09/29 04:28:44;;;;;;;12.07;3.17;;;;;;;15.14;100.00;101317.44;5074398;28;20071;-79
2023/09/29 04:31:10;;;;;;;13.40;3.47;;;;;;;15.13;100.00;101312.25;5075544;28;20091;-79
2023/09/29 04:33:36;;;;;;;11.98;3.40;;;;;;;15.11;100.00;101306.22;5075418;28;20051;-82
2023/09/29 04:36:01;;;;;;;15.13;3.67;;;;;;;15.10;100.00;101317.91;5075338;28;20029;-79
2023/09/29 04:38:26;;;;;;;9.98;3.70;;;;;;;15.08;100.00;101318.09;5073301;28;20040;-79
2023/09/29 04:40:52;;;;;;;12.88;3.58;;;;;;;15.08;100.00;101317.25;5074805;28;20047;-79
2023/09/29 04:43:18;;;;;;;14.20;4.25;;;;;;;15.08;100.00;101318.09;5073882;28;20032;-79
2023/09/29 04:45:43;;;;;;;10.88;4.00;;;;;;;15.11;100.00;101309.72;5074673;28;20374;-81
2023/09/29 04:48:10;;;;;;;14.98;3.45;;;;;;;15.11;100.00;101309.72;5074743;28;20057;-80
2023/09/29 04:50:35;;;;;;;16.75;3.70;;;;;;;15.11;100.00;101308.91;5075181;28;20158;-79
2023/09/29 04:53:00;;;;;;;13.23;3.60;;;;;;;15.12;100.00;101307.88;5073794;28;20032;-80
2023/09/29 04:55:28;;;;;;;13.05;3.67;;;;;;;15.12;100.00;101305.19;5073233;28;20060;-79
2023/09/29 04:57:54;;;;;;;16.27;5.30;;;;;;;15.12;100.00;101310.56;5073804;28;20033;-79
2023/09/29 05:00:22;;;;;;;15.25;5.03;;;;;;;15.12;100.00;101310.56;5075004;28;20154;-79
2023/09/29 05:02:48;;;;;;;13.07;3.63;;;;;;;15.12;100.00;101311.41;5074547;28;20170;-80
2023/09/29 05:05:13;;;;;;;11.73;3.60;;;;;;;15.12;100.00;101306.06;5073282;28;20036;-79
2023/09/29 05:07:39;;;;;;;11.75;3.83;;;;;;;15.14;100.00;101309.41;5074633;28;20086;-83
2023/09/29 05:10:05;;;;;;;9.63;3.42;;;;;;;15.17;100.00;101313.63;5075061;28;20494;-81
2023/09/29 05:12:31;;;;;;;18.58;4.32;;;;;;;15.16;100.00;101318.13;5074591;28;20136;-80
2023/09/29 05:14:57;;;;;;;14.48;3.55;;;;;;;15.17;100.00;101327.03;5074123;28;20041;-82
2023/09/29 05:17:22;;;;;;;11.77;3.30;;;;;;;15.20;100.00;101320.47;5072764;28;20506;-80
2023/09/29 05:19:48;;;;;;;15.77;4.10;;;;;;;15.19;100.00;101324.19;5074427;28;20034;-81
2023/09/29 05:22:13;;;;;;;12.48;3.70;;;;;;;15.20;100.00;101321.34;5074148;28;20081;-80
2023/09/29 05:24:38;;;;;;;10.30;3.35;;;;;;;15.20;100.00;101313.31;5074064;28;20106;-82
2023/09/29 05:27:04;;;;;;;11.65;3.40;;;;;;;15.20;100.00;101324.03;5073577;28;20036;-81
2023/09/29 05:29:30;;;;;;;12.90;3.67;;;;;;;15.18;100.00;101317.13;5073797;28;20369;-80
2023/09/29 05:31:55;;;;;;;9.30;3.65;;;;;;;15.14;100.00;101314.75;5072666;28;20028;-82
2023/09/29 05:34:21;;;;;;;15.63;4.10;;;;;;;15.12;100.00;101310.56;5074206;28;20040;-79
2023/09/29 05:36:46;;;;;;;11.20;3.30;;;;;;;15.10;100.00;101316.06;5073390;28;20115;-80
2023/09/29 05:39:12;;;;;;;11.63;3.88;;;;;;;15.08;100.00;101320.75;5070977;28;20040;-81
2023/09/29 05:41:38;;;;;;;9.85;3.67;;;;;;;15.09;100.00;101311.72;5073869;28;20234;-81
2023/09/29 05:44:03;;;;;;;15.10;3.38;;;;;;;15.21;100.00;101323.03;5073563;28;20032;-80
2023/09/29 05:46:29;;;;;;;9.02;2.80;;;;;;;15.32;100.00;101320.06;5073564;28;20041;-81
2023/09/29 05:48:54;;;;;;;10.30;2.92;;;;;;;15.47;100.00;101322.16;5073604;28;20028;-80
2023/09/29 05:51:20;;;;;;;8.80;2.95;;;;;;;15.65;100.00;101328.28;5072243;28;20047;-80
2023/09/29 05:53:45;;;;;;;10.00;3.38;;;;;;;15.78;100.00;101318.97;5073983;28;20032;-80
2023/09/29 05:56:12;;;;;;;11.43;3.45;;;;;;;15.85;100.00;101315.50;5073407;28;20039;-80
2023/09/29 05:58:37;;;;;;;15.32;2.92;;;;;;;15.93;100.00;101324.56;5072548;28;20043;-80
2023/09/29 06:01:13;;;;;;;6.43;2.67;;;;;;;16.00;100.00;101325.59;5073575;28;20375;-81
2023/09/29 06:03:40;;;;;;;12.55;2.67;;;;;;;16.03;100.00;101318.09;5073562;28;20078;-80
2023/09/29 06:06:07;;;;;;;7.07;2.40;;;;;;;16.08;100.00;101322.94;5073723;28;20135;-81
2023/09/29 06:08:32;;;;;;;10.18;2.95;;;;;;;16.11;100.00;101314.56;5073207;28;20043;-79
2023/09/29 06:10:58;;;;;;;8.82;2.72;;;;;;;16.19;100.00;101324.47;5072969;28;20028;-81
2023/09/29 06:13:23;;;;;;;16.33;2.90;;;;;;;16.28;100.00;101323.50;5073292;28;20492;-81
2023/09/29 06:15:49;;;;;;;16.88;3.85;;;;;;;16.39;100.00;101328.56;5073459;28;20036;-80
2023/09/29 06:18:15;;;;;;;10.88;2.90;;;;;;;16.48;100.00;101328.56;5071406;28;20024;-80
2023/09/29 06:20:40;;;;;;;9.18;2.78;;;;;;;16.55;100.00;101333.09;5071576;28;20033;-81
2023/09/29 06:23:06;;;;;;;11.05;2.50;;;;;;;16.58;100.00;101323.88;5072918;28;20496;-81
2023/09/29 06:25:33;;;;;;;7.80;2.80;;;;;;;16.65;100.00;101340.16;5073247;28;20032;-81
2023/09/29 06:27:58;;;;;;;8.88;2.80;;;;;;;16.70;100.00;101338.63;5071303;28;20043;-81
2023/09/29 06:30:24;;;;;;;7.28;2.45;;;;;;;16.74;100.00;101340.00;5073581;28;20029;-80
2023/09/29 06:32:49;;;;;;;7.53;2.40;;;;;;;16.80;100.00;101346.56;5072819;28;20522;-81
2023/09/29 06:35:15;;;;;;;11.05;2.55;;;;;;;16.85;100.00;101354.94;5074174;28;20036;-79
2023/09/29 06:37:41;;;;;;;13.23;3.50;;;;;;;16.92;100.00;101349.78;5073162;28;20115;-83
2023/09/29 06:40:10;;;;;;;10.52;2.70;;;;;;;16.96;100.00;101351.13;5072771;28;20121;-81
2023/09/29 06:42:38;;;;;;;6.90;2.50;;;;;;;17.00;100.00;101349.75;5071639;28;20149;-80
2023/09/29 06:45:05;;;;;;;7.28;2.67;;;;;;;17.00;100.00;101344.38;5072118;28;20040;-82
2023/09/29 06:47:30;;;;;;;4.60;2.42;;;;;;;17.00;100.00;101344.38;5071647;28;20036;-79
2023/09/29 06:49:56;;;;;;;9.45;2.67;;;;;;;17.00;100.00;101335.50;5072092;28;20435;-80
2023/09/29 06:52:21;;;;;;;5.65;2.40;;;;;;;16.98;100.00;101335.66;5071203;28;20035;-81
2023/09/29 06:54:46;;;;;;;8.77;2.42;;;;;;;16.98;100.00;101346.41;5072369;28;20024;-82
2023/09/29 06:57:12;;;;;;;5.75;2.53;;;;;;;17.03;100.00;101351.28;5072527;28;20119;-80
2023/09/29 06:59:37;;;;;;;7.93;2.80;;;;;;;17.08;100.00;101351.63;5072364;28;20138;-80
2023/09/29 07:02:03;;;;;;;5.30;2.63;;;;;;;17.10;100.00;101353.09;5072098;28;20509;-81
2023/09/29 07:04:28;;;;;;;9.55;2.45;;;;;;;17.10;100.00;101353.09;5071852;28;20051;-81
2023/09/29 07:06:54;;;;;;;9.88;3.03;;;;;;;17.12;100.00;101352.94;5054309;28;20077;-81
2023/09/29 07:09:19;;;;;;;8.55;3.00;;;;;;;17.12;100.00;101355.63;5071948;28;20097;-80
2023/09/29 07:11:45;;;;;;;6.90;2.90;;;;;;;17.14;100.00;101358.16;5070935;28;20487;-82
2023/09/29 07:14:10;;;;;;;13.07;2.50;;;;;;;17.13;100.00;101348.44;5072230;28;20123;-82
2023/09/29 07:16:35;;;;;;;6.85;2.70;;;;;;;17.15;100.00;101355.28;5070862;28;20040;-80
2023/09/29 07:19:01;;;;;;;8.52;2.67;;;;;;;17.16;100.00;101359.66;5072046;28;20033;-82
2023/09/29 07:21:27;;;;;;;6.82;2.92;;;;;;;17.19;100.00;101361.19;5070689;28;20107;-82
2023/09/29 07:23:52;;;;;;;12.40;2.83;;;;;;;17.20;100.00;101369.06;5071695;28;20047;-83
2023/09/29 07:26:18;;;;;;;7.45;2.60;;;;;;;17.23;100.00;101371.44;5070275;28;20406;-81
2023/09/29 07:28:43;;;;;;;5.75;2.88;;;;;;;17.23;100.00;101367.91;5071087;28;20040;-83
2023/09/29 07:31:09;;;;;;;7.97;2.75;;;;;;;17.19;100.00;101375.47;5072279;28;20473;-79
2023/09/29 07:33:34;;;;;;;9.10;3.20;;;;;;;17.15;100.00;101379.47;5071661;28;20040;-82
2023/09/29 07:36:00;;;;;;;10.07;3.25;;;;;;;17.13;100.00;101383.38;5070929;28;20024;-80
2023/09/29 07:38:25;;;;;;;7.88;2.90;;;;;;;17.12;100.00;101381.69;5072968;28;20032;-82
2023/09/29 07:40:51;;;;;;;7.20;3.10;;;;;;;17.13;100.00;101384.22;5072206;28;20139;-83
2023/09/29 07:43:16;;;;;;;8.85;3.15;;;;;;;17.12;100.00;101384.38;5071735;28;20032;-84
2023/09/29 07:45:42;;;;;;;9.15;3.28;;;;;;;17.12;100.00;101376.31;5072085;28;20488;-82
2023/09/29 07:48:07;;;;;;;10.57;3.42;;;;;;;17.11;100.00;101386.22;5070426;28;20044;-82
2023/09/29 07:50:33;;;;;;;9.02;3.42;;;;;;;17.12;100.00;101379.00;5072082;28;20139;-83
2023/09/29 07:52:59;;;;;;;12.02;3.30;;;;;;;17.15;100.00;101381.34;5071567;28;20046;-83
2023/09/29 07:55:25;;;;;;;11.85;3.05;;;;;;;17.24;100.00;101381.19;5071658;28;20071;-82
2023/09/29 07:57:51;;;;;;;7.45;2.83;;;;;;;17.33;100.00;101390.09;5071574;28;20028;-83
2023/09/29 08:00:16;;;;;;;8.07;3.08;;;;;;;17.47;100.00;101387.72;5071957;28;20083;-83
2023/09/29 08:02:43;;;;;;;6.35;3.00;;;;;;;17.57;100.00;101386.50;5073433;28;20033;-83
2023/09/29 08:05:12;;;;;;;8.02;3.40;;;;;;;17.69;100.00;101384.28;5075937;28;20465;-83
2023/09/29 08:07:38;;;;;;;7.05;3.10;;;;;;;17.93;100.00;101396.84;5074358;28;20086;-82
2023/09/29 08:10:03;;;;;;;6.85;3.05;;;;;;;18.14;100.00;101398.94;5075481;28;20036;-82
2023/09/29 08:12:29;;;;;;;8.60;3.38;;;;;;;18.43;100.00;101400.13;5076728;28;20029;-82
2023/09/29 08:14:54;;;;;;;12.77;3.15;;;;;;;18.74;100.00;101406.53;5076975;28;20418;-83
2023/09/29 08:17:19;;;;;;;8.95;2.92;;;;;;;18.93;100.00;101397.97;5075450;28;20039;-82
2023/09/29 08:19:45;;;;;;;8.85;3.05;;;;;;;19.01;100.00;101397.91;5076801;28;20409;-84
2023/09/29 08:22:11;;;;;;;6.07;2.40;;;;;;;19.13;100.00;101401.00;5076543;28;20094;-84
2023/09/29 08:24:36;;;;;;;7.22;3.20;;;;;;;19.43;100.00;101406.47;5076400;28;20029;-83
2023/09/29 08:27:02;;;;;;;5.53;2.85;;;;;;;19.59;100.00;101402.78;5076702;28;20086;-83
2023/09/29 08:29:28;;;;;;;14.30;3.20;;;;;;;19.54;100.00;101407.88;5077090;28;20033;-84
2023/09/29 08:31:54;;;;;;;8.45;3.05;;;;;;;19.46;100.00;101418.75;5077578;28;20094;-83
2023/09/29 08:34:19;;;;;;;4.57;2.03;;;;;;;19.38;100.00;101412.41;5076371;28;20030;-83
2023/09/29 08:36:45;;;;;;;5.97;2.85;;;;;;;19.32;100.00;101410.44;5076023;28;20036;-82
2023/09/29 08:39:10;;;;;;;5.38;2.80;;;;;;;19.23;100.00;101416.94;5058110;28;20036;-83
2023/09/29 08:41:45;;;;;;;3.65;2.60;;;;;;;19.08;100.00;101416.06;5076197;28;20431;-83
2023/09/29 08:44:13;;;;;;;4.63;2.70;;;;;;;18.97;100.00;101420.88;5076432;28;20031;-84
2023/09/29 08:46:41;;;;;;;5.00;2.35;;;;;;;18.89;100.00;101426.31;5074835;28;20108;-83
2023/09/29 08:49:08;;;;;;;6.55;2.60;;;;;;;18.76;100.00;101429.56;5075762;28;20076;-82
2023/09/29 08:51:35;;;;;;;5.22;2.80;;;;;;;18.70;100.00;101424.91;5075782;28;20464;-84
2023/09/29 08:54:02;;;;;;;17.45;3.20;;;;;;;18.67;100.00;101436.03;5075737;28;20115;-84
2023/09/29 08:56:28;;;;;;;8.07;2.80;;;;;;;18.63;100.00;101437.41;5074403;28;20036;-82
2023/09/29 08:58:55;;;;;;;6.68;2.35;;;;;;;18.55;100.00;101442.84;5075872;28;20396;-83
2023/09/29 09:01:20;;;;;;;5.00;2.65;;;;;;;18.37;100.00;101443.13;5075924;28;20029;-84
2023/09/29 09:03:46;;;;;;;4.75;2.70;;;;;;;18.28;100.00;101443.13;5074635;28;20429;-84
2023/09/29 09:06:21;;;;;;;6.35;2.83;;;;;;;18.20;100.00;101443.19;5075892;28;20028;-82
2023/09/29 09:08:49;;;;;;;6.50;2.90;;;;;;;18.18;100.00;101455.97;5075554;28;20028;-85
2023/09/29 09:11:14;;;;;;;8.27;3.38;;;;;;;18.18;100.00;101441.69;5075391;28;20544;-83
2023/09/29 09:13:40;;;;;;;5.60;2.80;;;;;;;18.20;100.00;101442.31;5057012;28;20107;-82
2023/09/29 09:16:07;;;;;;;7.13;3.05;;;;;;;18.25;100.00;101443.50;5074642;28;20124;-84
2023/09/29 09:18:32;;;;;;;5.10;2.85;;;;;;;18.28;100.00;101443.13;5074059;28;20068;-82
2023/09/29 09:20:58;;;;;;;6.30;2.83;;;;;;;18.33;100.00;101448.00;5075318;28;20174;-82
2023/09/29 09:23:23;;;;;;;7.20;3.00;;;;;;;18.40;100.00;101454.38;5074134;28;20029;-82
2023/09/29 09:25:49;;;;;;;5.15;3.13;;;;;;;18.43;100.00;101458.56;5075255;28;20040;-84
2023/09/29 09:28:16;;;;;;;4.10;2.80;;;;;;;18.36;100.00;101450.34;5075425;28;20436;-84
2023/09/29 09:30:42;;;;;;;5.00;2.90;;;;;;;18.35;100.00;101459.44;5076433;28;20089;-81
2023/09/29 09:33:16;;;;;;;6.20;3.15;;;;;;;18.32;100.00;101457.94;5075085;28;20032;-80
2023/09/29 09:35:42;;;;;;;4.75;3.08;;;;;;;18.40;100.00;101456.22;5076666;28;20020;-82
2023/09/29 09:38:08;;;;;;;7.72;3.63;;;;;;;18.42;100.00;101467.66;5074869;28;20033;-81
2023/09/29 09:40:34;;;;;;;5.82;3.00;;;;;;;18.50;100.00;101465.78;5074786;28;20090;-81
2023/09/29 09:43:02;;;;;;;5.50;3.15;;;;;;;18.53;100.00;101469.16;5057021;28;20033;-80
2023/09/29 09:45:41;;;;;;;5.35;3.40;;;;;;;18.47;100.00;101478.75;5074640;28;20028;-84
2023/09/29 09:48:08;;;;;;;8.13;4.07;;;;;;;18.39;100.00;101478.78;5075453;28;20033;-83
2023/09/29 09:50:36;;;;;;;9.73;4.28;;;;;;;18.20;100.00;101494.34;5075244;28;20487;-84
2023/09/29 09:53:04;;;;;;;9.48;3.72;;;;;;;17.97;100.00;101513.94;5074405;28;20048;-82
2023/09/29 09:55:50;;;;;;;6.57;2.53;;;;;;;17.74;100.00;101519.16;5074970;28;20036;-85
2023/09/29 09:58:17;;;;;;;6.05;1.88;;;;;;;17.48;100.00;101527.41;5074701;28;20354;-87
2023/09/29 10:00:46;;;;;;;8.45;2.05;;;;;;;17.26;100.00;101534.28;5074866;28;20127;-86
2023/09/29 10:03:12;;;;;;;9.52;1.80;;;;;;;17.10;100.00;101543.16;5075031;28;20047;-85
2023/09/29 10:05:51;;;;;;;12.50;2.63;;;;;;;16.98;100.00;101550.69;5073579;28;20040;-88
2023/09/29 10:08:29;;;;;;;8.23;1.92;;;;;;;16.89;100.00;101559.75;5075595;28;20043;-86
2023/09/29 10:11:09;;;;;;;14.88;2.20;;;;;;;16.80;100.00;101563.38;5074758;28;20473;-84
2023/09/29 10:13:35;;;;;;;10.23;1.95;;;;;;;16.69;100.00;101575.25;5074359;28;20357;-85
2023/09/29 10:16:05;;;;;;;11.95;2.78;;;;;;;16.62;100.00;101583.13;5075259;28;20036;-87
2023/09/29 10:18:33;;;;;;;14.38;2.50;;;;;;;16.54;100.00;101586.63;5073103;28;20469;-84
2023/09/29 10:21:09;;;;;;;4.95;1.48;;;;;;;16.49;100.00;101591.59;5073766;28;20032;-86
2023/09/29 10:23:45;;;;;;;9.65;1.85;;;;;;;16.49;100.00;101596.16;5074578;28;20068;-83
2023/09/29 10:26:11;;;;;;;5.97;1.80;;;;;;;16.45;100.00;101602.84;5074416;28;20028;-84
2023/09/29 10:28:40;;;;;;;9.60;2.20;;;;;;;16.47;100.00;101609.72;5073757;28;20134;-84
2023/09/29 10:31:13;;;;;;;7.10;1.70;;;;;;;16.46;100.00;101626.84;5074966;28;20029;-85
2023/09/29 10:33:50;;;;;;;6.75;1.60;;;;;;;16.44;100.00;101625.34;5074832;28;20473;-86
2023/09/29 10:36:15;;;;;;;12.27;1.70;;;;;;;16.48;100.00;101632.06;5076259;28;20036;-84
2023/09/29 10:38:41;;;;;;;8.43;1.70;;;;;;;16.56;100.00;101634.81;5061017;28;20032;-83
2023/09/29 10:41:07;;;;;;;13.95;1.88;;;;;;;16.65;100.00;101643.75;5082290;28;20031;-84
2023/09/29 10:43:35;;;;;;;5.47;1.65;;;;;;;16.62;100.00;101649.44;5081557;28;20060;-84
2023/09/29 10:46:08;;;;;;;5.43;1.60;;;;;;;16.57;100.00;101656.13;5074332;28;20067;-84
2023/09/29 10:48:33;;;;;;;4.47;1.25;;;;;;;16.47;100.00;101665.31;5074488;28;20055;-84
2023/09/29 10:50:58;;;;;;;8.68;2.08;;;;;;;16.36;100.00;101671.75;5074356;28;20429;-84
2023/09/29 10:53:24;;;;;;;11.38;2.00;;;;;;;16.30;100.00;101675.06;5072475;28;20413;-82
2023/09/29 10:55:51;;;;;;;7.32;1.63;;;;;;;16.25;100.00;101678.22;5073805;28;20101;-84
2023/09/29 10:58:18;;;;;;;6.80;1.52;;;;;;;16.30;100.00;101673.25;5073768;28;20028;-86
2023/09/29 11:00:48;;;;;;;6.30;1.73;;;;;;;16.34;100.00;101673.78;5073257;28;20396;-86
2023/09/29 11:03:16;;;;;;;7.88;1.52;;;;;;;16.43;100.00;101672.00;5073502;28;20025;-84
2023/09/29 11:05:48;;;;;;;8.50;1.42;;;;;;;16.60;100.00;101687.22;5073380;28;20040;-85
2023/09/29 11:08:17;;;;;;;5.95;1.63;;;;;;;16.81;100.00;101692.22;5072450;28;20041;-86
2023/09/29 11:10:52;;;;;;;8.90;1.60;;;;;;;16.96;100.00;101705.06;5073856;28;20365;-86